Time;durP1;ratioP1;P1;durP2;ratioP2;P2;SDS_P1;SDS_P2;PMS_P1;PMS_P2;Temp;Humidity;BMP_temperature;BMP_pressure;BME280_temperature;BME280_humidity;BME280_pressure;Samples;Min_cycle;Max_cycle;Signal;HPM_P1;HPM_P2
2022/08/10 00:00:31;;;;;;;12.90;12.30;;;20.50;99.90;;;;;;5041855;28;20546;-67
2022/08/10 00:03:01;;;;;;;13.77;12.67;;;20.50;99.90;;;;;;5040323;28;21017;-67
2022/08/10 00:05:29;;;;;;;12.70;12.10;;;20.50;99.90;;;;;;5034604;28;20820;-68
2022/08/10 00:07:56;;;;;;;12.97;12.30;;;20.50;99.90;;;;;;5037665;28;20471;-67
2022/08/10 00:10:24;;;;;;;13.80;12.80;;;20.40;99.90;;;;;;5039094;28;20499;-68
2022/08/10 00:12:51;;;;;;;12.80;12.20;;;20.40;99.90;;;;;;5043804;28;20455;-67
2022/08/10 00:15:22;;;;;;;12.93;12.33;;;20.40;99.90;;;;;;5035184;28;20500;-67
2022/08/10 00:17:50;;;;;;;13.00;12.20;;;20.40;99.90;;;;;;5034868;28;20461;-67
2022/08/10 00:20:16;;;;;;;12.97;12.27;;;20.30;99.90;;;;;;5039249;28;20465;-67
2022/08/10 00:22:45;;;;;;;12.63;12.00;;;20.20;99.90;;;;;;5039147;28;20542;-66
2022/08/10 00:25:13;;;;;;;13.93;12.83;;;20.20;99.90;;;;;;5040316;28;20552;-68
2022/08/10 00:27:43;;;;;;;14.17;13.10;;;20.10;99.90;;;;;;5040973;28;20483;-67
2022/08/10 00:30:12;;;;;;;13.57;12.67;;;20.10;99.90;;;;;;5047098;28;20461;-66
2022/08/10 00:32:40;;;;;;;13.50;12.90;;;20.10;99.90;;;;;;5043273;28;21423;-67
2022/08/10 00:35:08;;;;;;;12.87;12.27;;;20.00;99.90;;;;;;5041759;28;20465;-68
2022/08/10 00:37:35;;;;;;;13.70;12.67;;;19.90;99.90;;;;;;5045365;28;20459;-67
2022/08/10 00:40:04;;;;;;;13.07;12.47;;;19.80;99.90;;;;;;5043285;28;20460;-67
2022/08/10 00:42:31;;;;;;;13.60;12.70;;;19.80;99.90;;;;;;5042998;28;20484;-67
2022/08/10 00:44:58;;;;;;;14.00;13.07;;;19.80;99.90;;;;;;5047411;28;20462;-67
2022/08/10 00:47:25;;;;;;;13.90;13.00;;;19.70;99.90;;;;;;5043006;28;20997;-67
2022/08/10 00:49:53;;;;;;;13.67;12.97;;;19.70;99.90;;;;;;5043773;28;20460;-67
2022/08/10 00:52:21;;;;;;;13.63;12.73;;;19.70;99.90;;;;;;5040890;28;20814;-67
2022/08/10 00:54:48;;;;;;;14.10;13.00;;;19.60;99.90;;;;;;5038752;28;20455;-67
2022/08/10 00:57:17;;;;;;;14.00;13.20;;;19.50;99.90;;;;;;5043490;28;20456;-67
2022/08/10 00:59:44;;;;;;;13.63;12.80;;;19.40;99.90;;;;;;5045543;28;20475;-67
2022/08/10 01:02:11;;;;;;;14.07;13.00;;;19.40;99.90;;;;;;5044265;28;20970;-67
2022/08/10 01:04:38;;;;;;;14.73;13.60;;;19.30;99.90;;;;;;5040959;28;20487;-67
2022/08/10 01:07:21;;;;;;;14.00;13.10;;;19.20;99.90;;;;;;5044182;28;20456;-67
2022/08/10 01:09:58;;;;;;;13.50;12.70;;;19.20;99.90;;;;;;5043691;28;20459;-67
2022/08/10 01:12:33;;;;;;;14.73;13.80;;;19.00;99.90;;;;;;5039380;28;20487;-67
2022/08/10 01:15:05;;;;;;;14.83;13.90;;;18.80;99.90;;;;;;5041172;28;20459;-67
2022/08/10 01:17:41;;;;;;;14.27;13.27;;;18.70;99.90;;;;;;5044590;28;20468;-67
2022/08/10 01:20:17;;;;;;;13.77;12.87;;;18.60;99.90;;;;;;5040688;28;20489;-67
2022/08/10 01:23:02;;;;;;;13.50;12.60;;;18.50;99.90;;;;;;5042000;28;20452;-66
2022/08/10 01:26:07;;;;;;;13.33;12.50;;;18.40;99.90;;;;;;5040760;28;20795;-67
2022/08/10 01:28:50;;;;;;;13.63;12.63;;;18.30;99.90;;;;;;5043463;28;20464;-67
2022/08/10 01:31:23;;;;;;;12.87;12.07;;;18.20;99.90;;;;;;5045826;28;20513;-67
2022/08/10 01:33:57;;;;;;;13.70;12.93;;;18.20;99.90;;;;;;5043919;28;20460;-67
2022/08/10 01:36:28;;;;;;;13.80;12.80;;;18.10;99.90;;;;;;5043667;28;20468;-67
2022/08/10 01:39:00;;;;;;;13.63;12.83;;;18.10;99.90;;;;;;5035456;28;20511;-67
2022/08/10 01:41:31;;;;;;;13.40;12.50;;;18.10;99.90;;;;;;5045433;28;20471;-67
2022/08/10 01:44:03;;;;;;;13.30;12.37;;;18.00;99.90;;;;;;5041250;28;20462;-67
2022/08/10 01:46:33;;;;;;;13.80;12.80;;;18.10;99.90;;;;;;5034430;28;20963;-67
2022/08/10 01:49:01;;;;;;;12.93;12.33;;;18.10;99.90;;;;;;5038939;28;20460;-67
2022/08/10 01:51:32;;;;;;;14.10;13.30;;;18.00;99.90;;;;;;5045239;28;20474;-67
2022/08/10 01:54:02;;;;;;;13.87;12.87;;;17.90;99.90;;;;;;5042431;28;20459;-67
2022/08/10 01:56:33;;;;;;;13.17;12.27;;;17.80;99.90;;;;;;5041277;28;20462;-66
2022/08/10 01:59:18;;;;;;;13.80;12.90;;;17.80;99.90;;;;;;5043978;28;20939;-67
2022/08/10 02:01:51;;;;;;;13.70;12.90;;;17.70;99.90;;;;;;5045966;28;20472;-67
2022/08/10 02:04:20;;;;;;;13.43;12.83;;;17.90;99.90;;;;;;5041184;28;22110;-67
2022/08/10 02:06:49;;;;;;;13.70;12.73;;;18.00;99.90;;;;;;5040761;28;20464;-68
2022/08/10 02:09:20;;;;;;;13.70;13.00;;;18.00;99.90;;;;;;5041650;28;20460;-67
2022/08/10 02:11:49;;;;;;;13.87;13.10;;;18.10;99.90;;;;;;5042878;28;20506;-67
2022/08/10 02:14:18;;;;;;;13.60;12.70;;;18.10;99.90;;;;;;5042399;28;20492;-67
2022/08/10 02:16:50;;;;;;;14.27;13.10;;;18.20;99.90;;;;;;5063013;28;20486;-66
2022/08/10 02:19:20;;;;;;;13.53;12.83;;;18.30;99.90;;;;;;5063970;28;20820;-67
2022/08/10 02:21:49;;;;;;;13.70;12.90;;;18.30;99.90;;;;;;5058791;28;20649;-67
2022/08/10 02:24:18;;;;;;;13.90;13.00;;;18.30;99.90;;;;;;5056225;28;21173;-67
2022/08/10 02:26:45;;;;;;;13.47;12.33;;;18.30;99.90;;;;;;5061287;28;20465;-66
2022/08/10 02:29:16;;;;;;;13.73;12.93;;;18.30;99.90;;;;;;5059615;28;20456;-67
2022/08/10 02:31:47;;;;;;;13.70;12.87;;;18.30;99.90;;;;;;5064172;28;20959;-67
2022/08/10 02:34:15;;;;;;;14.60;13.30;;;18.30;99.90;;;;;;5066568;28;20538;-67
2022/08/10 02:36:47;;;;;;;14.73;13.53;;;18.30;99.90;;;;;;5061599;28;20990;-67
2022/08/10 02:39:17;;;;;;;13.00;12.40;;;18.30;99.90;;;;;;5057016;28;20514;-67
2022/08/10 02:41:50;;;;;;;14.63;13.30;;;18.20;99.90;;;;;;5058772;28;20799;-67
2022/08/10 02:44:24;;;;;;;14.00;13.10;;;18.20;99.90;;;;;;5064457;28;20466;-67
2022/08/10 02:46:58;;;;;;;14.40;13.30;;;18.20;99.90;;;;;;5060859;28;20482;-67
2022/08/10 02:49:32;;;;;;;13.97;12.80;;;18.20;99.90;;;;;;5056240;28;20829;-67
2022/08/10 02:52:05;;;;;;;13.43;12.73;;;18.10;99.90;;;;;;5063966;28;20498;-67
2022/08/10 02:54:38;;;;;;;13.60;12.80;;;18.10;99.90;;;;;;5065667;28;20512;-67
2022/08/10 02:57:09;;;;;;;14.00;13.30;;;18.10;99.90;;;;;;5061851;28;20469;-67
2022/08/10 02:59:42;;;;;;;13.40;12.60;;;18.10;99.90;;;;;;5062711;28;20494;-67
2022/08/10 03:02:14;;;;;;;12.93;12.23;;;18.00;99.90;;;;;;5057333;28;20477;-66
2022/08/10 03:04:46;;;;;;;14.77;13.60;;;18.10;99.90;;;;;;5055682;28;20471;-67
2022/08/10 03:07:17;;;;;;;14.37;13.43;;;18.00;99.90;;;;;;5064576;28;20455;-67
2022/08/10 03:09:47;;;;;;;13.47;12.87;;;18.00;99.90;;;;;;5062430;28;20458;-67
2022/08/10 03:12:15;;;;;;;13.13;12.53;;;18.00;99.90;;;;;;5060069;28;20496;-68
2022/08/10 03:14:44;;;;;;;13.70;12.80;;;18.00;99.90;;;;;;5058614;28;20862;-67
2022/08/10 03:17:13;;;;;;;13.80;12.93;;;17.90;99.90;;;;;;5062693;28;20513;-67
2022/08/10 03:19:43;;;;;;;13.50;12.40;;;17.90;99.90;;;;;;5063135;28;20463;-68
2022/08/10 03:22:12;;;;;;;13.37;12.60;;;17.90;99.90;;;;;;5059432;28;20489;-67
2022/08/10 03:24:41;;;;;;;13.73;12.93;;;17.90;99.90;;;;;;5056450;28;20470;-68
2022/08/10 03:27:08;;;;;;;13.63;12.83;;;17.80;99.90;;;;;;5060306;28;20837;-67
2022/08/10 03:29:36;;;;;;;13.83;12.80;;;17.80;99.90;;;;;;5057015;28;20478;-67
2022/08/10 03:32:07;;;;;;;13.70;13.00;;;17.70;99.90;;;;;;5064553;28;20580;-67
2022/08/10 03:34:36;;;;;;;13.50;12.60;;;17.60;99.90;;;;;;5055766;28;20460;-67
2022/08/10 03:37:04;;;;;;;13.63;12.80;;;17.60;99.90;;;;;;5060992;28;20454;-67
2022/08/10 03:39:31;;;;;;;14.27;13.50;;;17.60;99.90;;;;;;5052618;28;20807;-67
2022/08/10 03:42:01;;;;;;;13.60;12.70;;;17.60;99.90;;;;;;5064503;28;20458;-66
2022/08/10 03:44:32;;;;;;;13.63;12.47;;;17.50;99.90;;;;;;5058892;28;20467;-67
2022/08/10 03:47:00;;;;;;;12.73;12.03;;;17.50;99.90;;;;;;5056610;28;20471;-67
2022/08/10 03:49:29;;;;;;;12.70;12.00;;;17.40;99.90;;;;;;5055489;28;20793;-67
2022/08/10 03:51:59;;;;;;;14.47;13.47;;;17.40;99.90;;;;;;5061108;28;20601;-67
2022/08/10 03:54:27;;;;;;;13.67;12.87;;;17.40;99.90;;;;;;5059528;28;20481;-67
2022/08/10 03:56:55;;;;;;;13.27;12.30;;;17.30;99.90;;;;;;5062976;28;20456;-66
2022/08/10 03:59:22;;;;;;;14.23;13.00;;;17.30;99.90;;;;;;5064384;28;20965;-67
2022/08/10 04:01:51;;;;;;;13.20;12.40;;;17.20;99.90;;;;;;5052680;28;20467;-67
2022/08/10 04:04:18;;;;;;;14.80;13.23;;;17.10;99.90;;;;;;5041379;28;20470;-67
2022/08/10 04:06:45;;;;;;;16.80;13.40;;;17.10;99.90;;;;;;5039379;28;20471;-67
2022/08/10 04:09:16;;;;;;;13.23;12.43;;;17.10;99.90;;;;;;5037995;28;21040;-67
2022/08/10 04:11:43;;;;;;;13.93;12.90;;;17.10;99.90;;;;;;5036017;28;21142;-68
2022/08/10 04:14:10;;;;;;;13.67;12.57;;;17.20;99.90;;;;;;5042672;28;20960;-68
2022/08/10 04:16:37;;;;;;;19.97;12.93;;;17.20;99.90;;;;;;5042840;28;20523;-66
2022/08/10 04:19:05;;;;;;;14.27;12.90;;;17.20;99.90;;;;;;5042225;28;20467;-67
2022/08/10 04:21:37;;;;;;;13.43;12.63;;;17.20;99.90;;;;;;5043910;28;20483;-67
2022/08/10 04:24:07;;;;;;;13.27;12.47;;;17.20;99.90;;;;;;5043894;28;20458;-67
2022/08/10 04:26:36;;;;;;;13.50;12.70;;;17.20;99.90;;;;;;5043997;28;20495;-67
2022/08/10 04:29:03;;;;;;;14.13;13.13;;;17.30;99.90;;;;;;5039834;28;20757;-67
2022/08/10 04:31:32;;;;;;;14.00;13.20;;;17.20;99.90;;;;;;5040438;28;20458;-67
2022/08/10 04:33:59;;;;;;;13.57;12.77;;;17.20;99.90;;;;;;5041195;28;20739;-67
2022/08/10 04:36:28;;;;;;;15.80;14.33;;;17.20;99.90;;;;;;5042727;28;20486;-67
2022/08/10 04:38:55;;;;;;;13.90;12.80;;;17.20;99.90;;;;;;5041230;28;20468;-67
2022/08/10 04:41:22;;;;;;;15.07;13.73;;;17.20;99.90;;;;;;5041806;28;21650;-67
2022/08/10 04:43:50;;;;;;;14.53;13.17;;;17.20;99.90;;;;;;5042755;28;20755;-68
2022/08/10 04:46:18;;;;;;;15.37;14.40;;;17.30;99.90;;;;;;5040275;28;20465;-67
2022/08/10 04:48:45;;;;;;;14.20;13.20;;;17.30;99.90;;;;;;5036990;28;20540;-68
2022/08/10 04:51:14;;;;;;;14.57;13.57;;;17.30;99.90;;;;;;5039900;28;20474;-67
2022/08/10 04:53:41;;;;;;;14.30;13.53;;;17.40;99.90;;;;;;5041976;28;20509;-68
2022/08/10 04:56:08;;;;;;;14.83;13.93;;;17.40;99.90;;;;;;5041067;28;20474;-67
2022/08/10 04:58:35;;;;;;;15.03;14.17;;;17.40;99.90;;;;;;5040867;28;20518;-67
2022/08/10 05:01:04;;;;;;;15.27;14.17;;;17.40;99.90;;;;;;5041533;28;21244;-68
2022/08/10 05:03:30;;;;;;;15.00;14.20;;;17.30;99.90;;;;;;5041290;28;21224;-66
2022/08/10 05:05:57;;;;;;;15.10;13.90;;;17.40;99.90;;;;;;5040214;28;20467;-67
2022/08/10 05:08:25;;;;;;;14.70;13.70;;;17.50;99.90;;;;;;5037563;28;20486;-67
2022/08/10 05:10:51;;;;;;;15.80;14.50;;;17.50;99.90;;;;;;5037077;28;20618;-67
2022/08/10 05:13:18;;;;;;;15.83;14.83;;;17.60;99.90;;;;;;5041232;28;20502;-67
2022/08/10 05:15:45;;;;;;;15.20;14.20;;;17.60;99.90;;;;;;5040754;28;20486;-67
2022/08/10 05:18:13;;;;;;;15.43;14.30;;;17.80;99.90;;;;;;5041298;28;20455;-68
2022/08/10 05:20:40;;;;;;;16.13;15.10;;;17.90;99.90;;;;;;5041279;28;21034;-67
2022/08/10 05:23:07;;;;;;;15.57;14.57;;;17.90;99.90;;;;;;5037573;28;20471;-68
2022/08/10 05:25:35;;;;;;;15.40;14.50;;;18.10;99.90;;;;;;5033435;28;20481;-67
2022/08/10 05:28:01;;;;;;;14.83;13.90;;;18.10;99.90;;;;;;5039097;28;20997;-67
2022/08/10 05:30:28;;;;;;;15.20;14.00;;;18.20;99.90;;;;;;5039071;28;20459;-67
2022/08/10 05:32:55;;;;;;;15.00;14.00;;;18.30;99.90;;;;;;5041035;28;20492;-67
2022/08/10 05:35:25;;;;;;;16.60;15.23;;;18.20;99.90;;;;;;5041565;28;21490;-67
2022/08/10 05:37:52;;;;;;;15.60;14.70;;;18.30;99.90;;;;;;5042510;28;20963;-66
2022/08/10 05:40:21;;;;;;;15.80;14.90;;;18.40;99.90;;;;;;5038606;28;20474;-68
2022/08/10 05:42:48;;;;;;;16.07;14.87;;;18.50;99.90;;;;;;5041304;28;21214;-66
2022/08/10 05:45:21;;;;;;;16.00;14.73;;;18.60;99.90;;;;;;5057641;28;20467;-67
2022/08/10 05:47:50;;;;;;;15.63;14.73;;;18.70;99.90;;;;;;5054694;28;20583;-67
2022/08/10 05:50:19;;;;;;;15.83;14.93;;;18.70;99.90;;;;;;5054796;28;20472;-67
2022/08/10 05:52:47;;;;;;;16.50;15.50;;;18.80;99.90;;;;;;5042885;28;20495;-67
2022/08/10 05:55:15;;;;;;;17.17;15.77;;;18.80;99.90;;;;;;5043102;28;20473;-67
2022/08/10 05:57:42;;;;;;;16.20;15.07;;;19.00;99.90;;;;;;5039675;28;20862;-68
2022/08/10 06:00:14;;;;;;;16.03;15.10;;;19.10;99.90;;;;;;5039391;28;20893;-66
2022/08/10 06:02:43;;;;;;;15.90;15.00;;;19.10;99.90;;;;;;5037358;28;20557;-67
2022/08/10 06:05:12;;;;;;;16.00;15.00;;;19.20;99.90;;;;;;5039452;28;20497;-68
2022/08/10 06:07:44;;;;;;;16.77;15.43;;;19.30;99.90;;;;;;5039235;28;21071;-67
2022/08/10 06:10:17;;;;;;;16.40;15.40;;;19.30;99.90;;;;;;5038226;28;20471;-68
2022/08/10 06:12:47;;;;;;;16.60;15.57;;;19.40;99.90;;;;;;5033255;28;20730;-67
2022/08/10 06:15:15;;;;;;;17.47;16.07;;;19.60;99.90;;;;;;5037185;28;21079;-67
2022/08/10 06:17:43;;;;;;;16.43;15.47;;;19.70;99.90;;;;;;5039273;28;20490;-67
2022/08/10 06:20:11;;;;;;;17.10;15.97;;;19.80;99.90;;;;;;5035004;28;20475;-68
2022/08/10 06:22:38;;;;;;;16.67;15.63;;;19.90;99.90;;;;;;5034808;28;20460;-67
2022/08/10 06:25:06;;;;;;;16.97;15.80;;;20.00;99.90;;;;;;5035225;28;20467;-67
2022/08/10 06:27:36;;;;;;;16.57;15.47;;;20.20;99.90;;;;;;5036918;28;20469;-67
2022/08/10 06:30:03;;;;;;;17.90;16.40;;;20.30;99.90;;;;;;5037774;28;20463;-67
2022/08/10 06:32:32;;;;;;;16.07;15.07;;;20.40;99.90;;;;;;5038356;28;20954;-68
2022/08/10 06:35:00;;;;;;;16.83;15.80;;;20.50;99.90;;;;;;5037903;28;20503;-67
2022/08/10 06:37:29;;;;;;;17.30;16.13;;;20.70;99.90;;;;;;5038050;28;20463;-68
2022/08/10 06:39:56;;;;;;;16.33;15.53;;;20.90;99.90;;;;;;5039047;28;20463;-68
2022/08/10 06:42:31;;;;;;;17.00;16.00;;;20.90;99.90;;;;;;5034708;28;20488;-67
2022/08/10 06:45:03;;;;;;;17.23;15.90;;;21.20;99.90;;;;;;5036536;28;20467;-67
2022/08/10 06:47:46;;;;;;;16.60;15.70;;;21.30;99.90;;;;;;5039198;28;20479;-68
2022/08/10 06:50:16;;;;;;;16.90;16.00;;;21.40;99.90;;;;;;5039196;28;20466;-68
2022/08/10 06:52:45;;;;;;;17.80;16.30;;;21.50;99.90;;;;;;5035806;28;20492;-67
2022/08/10 06:55:14;;;;;;;18.23;17.20;;;21.60;99.90;;;;;;5038455;28;21038;-67
2022/08/10 06:57:42;;;;;;;19.90;16.37;;;21.70;99.90;;;;;;5037584;28;20485;-68
2022/08/10 07:00:13;;;;;;;16.40;15.50;;;21.80;99.90;;;;;;5036787;28;20471;-67
2022/08/10 07:02:45;;;;;;;17.67;16.37;;;22.00;99.90;;;;;;5050319;28;20981;-67
2022/08/10 07:05:17;;;;;;;17.70;16.37;;;22.10;99.90;;;;;;5048752;28;20455;-67
2022/08/10 07:07:45;;;;;;;17.20;16.30;;;22.20;99.90;;;;;;5030122;28;21128;-67
2022/08/10 07:10:16;;;;;;;18.03;16.63;;;22.20;99.90;;;;;;5031622;28;20463;-68
2022/08/10 07:12:44;;;;;;;17.63;16.53;;;22.40;99.90;;;;;;5033457;28;20502;-68
2022/08/10 07:15:13;;;;;;;17.33;16.00;;;22.60;99.90;;;;;;5034919;28;21028;-68
2022/08/10 07:17:42;;;;;;;17.70;16.60;;;22.70;99.90;;;;;;5035226;28;20456;-68
2022/08/10 07:20:10;;;;;;;17.57;16.30;;;22.80;99.90;;;;;;5034088;28;21060;-69
2022/08/10 07:22:39;;;;;;;17.33;16.23;;;22.90;99.90;;;;;;5030246;28;20475;-67
2022/08/10 07:25:08;;;;;;;17.20;16.20;;;23.00;99.90;;;;;;5032966;28;20479;-67
2022/08/10 07:27:37;;;;;;;18.03;16.70;;;23.00;99.90;;;;;;5034018;28;20463;-68
2022/08/10 07:30:05;;;;;;;17.73;16.60;;;23.00;99.90;;;;;;5032990;28;20853;-68
2022/08/10 07:32:35;;;;;;;18.30;17.00;;;23.20;99.90;;;;;;5034131;28;20470;-69
2022/08/10 07:35:03;;;;;;;17.00;16.00;;;23.20;99.90;;;;;;5033347;28;21087;-69
2022/08/10 07:37:35;;;;;;;16.70;15.80;;;23.30;99.90;;;;;;5031918;28;20467;-67
2022/08/10 07:40:03;;;;;;;17.63;16.40;;;23.50;99.90;;;;;;5032641;28;20489;-69
2022/08/10 07:42:32;;;;;;;17.27;16.37;;;23.60;99.90;;;;;;5024795;28;20460;-67
2022/08/10 07:45:02;;;;;;;17.90;16.50;;;23.80;99.90;;;;;;5032041;28;20459;-68
2022/08/10 07:47:32;;;;;;;18.30;17.07;;;24.00;99.90;;;;;;5034315;28;20865;-69
2022/08/10 07:50:03;;;;;;;17.83;16.60;;;24.20;99.90;;;;;;5032352;28;21068;-68
2022/08/10 07:52:33;;;;;;;18.43;17.23;;;24.20;99.90;;;;;;5032375;28;20508;-67
2022/08/10 07:55:02;;;;;;;18.30;17.10;;;24.50;99.90;;;;;;5032922;28;20463;-68
2022/08/10 07:57:31;;;;;;;18.50;17.10;;;24.60;99.90;;;;;;5033040;28;20474;-68
2022/08/10 08:00:04;;;;;;;18.87;17.10;;;24.50;99.90;;;;;;5033221;28;20558;-68
2022/08/10 08:02:36;;;;;;;17.27;16.23;;;24.70;99.90;;;;;;5037057;28;20474;-68
2022/08/10 08:05:07;;;;;;;17.43;16.43;;;24.50;99.90;;;;;;5035134;28;20469;-68
2022/08/10 08:07:36;;;;;;;18.50;16.67;;;24.90;99.90;;;;;;5036138;28;20814;-68
2022/08/10 08:10:04;;;;;;;17.93;16.63;;;24.80;99.90;;;;;;5033623;28;20475;-68
2022/08/10 08:12:33;;;;;;;18.10;17.10;;;24.70;99.90;;;;;;5026376;28;20478;-68
2022/08/10 08:15:01;;;;;;;18.17;16.70;;;25.00;99.90;;;;;;5035214;28;22822;-68
2022/08/10 08:17:30;;;;;;;18.23;16.90;;;25.40;99.80;;;;;;5035467;28;20872;-69
2022/08/10 08:19:58;;;;;;;18.30;16.90;;;25.70;99.30;;;;;;5035940;28;20891;-68
2022/08/10 08:22:28;;;;;;;18.47;17.07;;;25.90;99.00;;;;;;5036715;28;20472;-68
2022/08/10 08:24:57;;;;;;;18.30;17.13;;;25.70;98.00;;;;;;5063746;28;20950;-68
2022/08/10 08:27:25;;;;;;;18.93;17.07;;;25.70;98.40;;;;;;5060549;28;20478;-68
2022/08/10 08:29:53;;;;;;;17.37;16.20;;;26.00;97.70;;;;;;5060218;28;20463;-67
2022/08/10 08:32:23;;;;;;;17.23;16.33;;;26.00;97.40;;;;;;5053040;28;20718;-68
2022/08/10 08:34:54;;;;;;;20.70;17.33;;;26.10;96.70;;;;;;5035287;28;20491;-68
2022/08/10 08:37:23;;;;;;;18.27;16.90;;;26.20;96.10;;;;;;5035663;28;22581;-68
2022/08/10 08:39:52;;;;;;;19.73;17.23;;;26.30;95.70;;;;;;5036755;28;20459;-69
2022/08/10 08:42:46;;;;;;;19.53;18.23;;;26.50;94.60;;;;;;5035945;28;20962;-68
2022/08/10 08:45:22;;;;;;;18.80;17.13;;;27.10;94.10;;;;;;5036875;28;20464;-69
2022/08/10 08:48:05;;;;;;;19.63;18.37;;;27.70;92.70;;;;;;5035120;28;20860;-68
2022/08/10 08:50:42;;;;;;;19.30;17.83;;;28.10;90.50;;;;;;5037712;28;20610;-69
2022/08/10 08:53:43;;;;;;;18.57;17.47;;;28.60;89.60;;;;;;5035268;28;20503;-68
2022/08/10 08:56:28;;;;;;;18.33;17.23;;;29.40;84.10;;;;;;5039259;28;20557;-69
2022/08/10 08:59:08;;;;;;;18.60;17.50;;;29.40;81.80;;;;;;5039473;28;20460;-68
2022/08/10 09:02:04;;;;;;;19.70;18.30;;;29.50;80.70;;;;;;5030385;28;20476;-68
2022/08/10 09:04:46;;;;;;;19.77;18.27;;;30.60;75.90;;;;;;5033808;28;20608;-68
2022/08/10 09:07:47;;;;;;;19.57;18.17;;;31.50;71.90;;;;;;5034655;28;20455;-68
2022/08/10 09:10:26;;;;;;;19.10;17.70;;;31.80;66.80;;;;;;5035752;28;20503;-68
2022/08/10 09:13:12;;;;;;;17.97;16.87;;;31.60;64.80;;;;;;5038166;28;21042;-69
2022/08/10 09:15:46;;;;;;;17.47;16.67;;;32.00;62.00;;;;;;5050237;28;20833;-68
2022/08/10 09:18:20;;;;;;;18.30;17.00;;;31.80;60.80;;;;;;5067352;28;20462;-68
2022/08/10 09:20:49;;;;;;;18.30;17.20;;;31.70;59.20;;;;;;5048949;28;20468;-68
2022/08/10 09:23:24;;;;;;;18.73;17.20;;;32.20;58.50;;;;;;5037905;28;21006;-68
2022/08/10 09:25:54;;;;;;;18.80;17.80;;;32.20;57.40;;;;;;5038009;28;20470;-69
2022/08/10 09:28:26;;;;;;;19.50;17.70;;;32.80;54.50;;;;;;5037234;28;20557;-69
2022/08/10 09:31:00;;;;;;;18.87;17.40;;;32.90;54.80;;;;;;5036901;28;20463;-68
2022/08/10 09:33:37;;;;;;;18.33;17.20;;;33.40;55.00;;;;;;5035292;28;20499;-69
2022/08/10 09:36:15;;;;;;;18.60;17.53;;;33.50;51.20;;;;;;5036950;28;20579;-69
2022/08/10 09:38:51;;;;;;;18.03;16.83;;;33.90;49.50;;;;;;5038404;28;20470;-69
2022/08/10 09:41:28;;;;;;;18.50;17.30;;;34.20;49.30;;;;;;5038426;28;20473;-70
2022/08/10 09:44:04;;;;;;;17.63;16.50;;;34.80;48.10;;;;;;5035587;28;20862;-70
2022/08/10 09:46:48;;;;;;;18.07;17.00;;;35.20;46.50;;;;;;5038113;28;20465;-70
2022/08/10 09:49:21;;;;;;;19.27;17.63;;;35.30;45.30;;;;;;5038479;28;20462;-68
2022/08/10 09:51:56;;;;;;;18.53;17.20;;;35.90;43.90;;;;;;5039890;28;20872;-69
2022/08/10 09:54:52;;;;;;;18.67;17.27;;;35.70;42.70;;;;;;5038128;28;20490;-69
2022/08/10 09:57:28;;;;;;;17.93;16.70;;;35.50;42.00;;;;;;5037812;28;20448;-69
2022/08/10 10:00:07;;;;;;;18.10;17.10;;;35.10;42.90;;;;;;5037425;28;21517;-69
2022/08/10 10:02:45;;;;;;;18.87;17.37;;;35.10;42.90;;;;;;5049345;28;20462;-70
2022/08/10 10:05:27;;;;;;;18.63;17.17;;;35.40;41.40;;;;;;5061513;28;20745;-70
2022/08/10 10:08:03;;;;;;;18.20;17.20;;;35.50;40.80;;;;;;5037465;28;20732;-69
2022/08/10 10:10:35;;;;;;;18.33;16.53;;;35.70;40.70;;;;;;5038461;28;20458;-69
2022/08/10 10:13:08;;;;;;;17.73;16.83;;;35.10;40.00;;;;;;5035382;28;20455;-69
2022/08/10 10:15:47;;;;;;;18.00;16.80;;;35.10;39.60;;;;;;5037577;28;20940;-70
2022/08/10 10:18:22;;;;;;;18.00;16.70;;;35.90;39.10;;;;;;5036755;28;21273;-69
2022/08/10 10:21:05;;;;;;;17.73;16.33;;;35.90;39.40;;;;;;5036878;28;20477;-69
2022/08/10 10:23:42;;;;;;;17.43;16.33;;;36.00;38.60;;;;;;5028749;28;20639;-69
2022/08/10 10:26:15;;;;;;;16.60;15.60;;;35.50;38.90;;;;;;5037224;28;21120;-70
2022/08/10 10:28:57;;;;;;;17.77;16.67;;;35.20;39.60;;;;;;5036148;28;20505;-69
2022/08/10 10:31:33;;;;;;;17.63;16.20;;;35.80;38.90;;;;;;5034976;28;20463;-69
2022/08/10 10:34:12;;;;;;;17.07;16.07;;;36.30;37.80;;;;;;5033011;28;20486;-68
2022/08/10 10:36:43;;;;;;;18.30;17.13;;;36.30;37.00;;;;;;5036254;28;20503;-69
2022/08/10 10:39:13;;;;;;;19.10;17.30;;;35.90;36.30;;;;;;5036548;28;20481;-69
2022/08/10 10:41:48;;;;;;;17.60;16.60;;;34.40;36.80;;;;;;5036351;28;20493;-70
2022/08/10 10:44:25;;;;;;;19.73;17.23;;;34.00;38.20;;;;;;5036372;28;21121;-69
2022/08/10 10:46:59;;;;;;;17.93;16.63;;;33.60;38.30;;;;;;5034044;28;20480;-68
2022/08/10 10:49:41;;;;;;;17.10;16.20;;;34.10;38.90;;;;;;5036730;28;20589;-69
2022/08/10 10:52:20;;;;;;;17.80;16.73;;;33.80;38.00;;;;;;5035823;28;21047;-69
2022/08/10 10:54:58;;;;;;;18.73;17.53;;;34.10;38.80;;;;;;5036656;28;20573;-69
2022/08/10 10:57:30;;;;;;;16.87;16.07;;;34.50;37.40;;;;;;5034939;28;20463;-69
2022/08/10 11:00:05;;;;;;;17.70;16.80;;;35.30;36.40;;;;;;5034670;28;20456;-69
2022/08/10 11:02:45;;;;;;;17.40;15.83;;;35.10;36.40;;;;;;5058320;28;20516;-69
2022/08/10 11:05:22;;;;;;;18.67;17.57;;;34.90;37.20;;;;;;5055783;28;20473;-69
2022/08/10 11:07:55;;;;;;;18.50;17.20;;;35.50;36.50;;;;;;5036616;28;20807;-69
2022/08/10 11:10:25;;;;;;;17.97;16.97;;;35.70;36.80;;;;;;5035004;28;20467;-69
2022/08/10 11:13:01;;;;;;;17.50;16.57;;;35.00;37.90;;;;;;5036331;28;21111;-68
2022/08/10 11:15:34;;;;;;;17.70;16.80;;;35.50;36.10;;;;;;5035317;28;20779;-70
2022/08/10 11:18:08;;;;;;;17.03;16.17;;;36.10;35.50;;;;;;5035742;28;20499;-70
2022/08/10 11:20:46;;;;;;;18.20;17.10;;;35.30;35.80;;;;;;5035658;28;20460;-69
2022/08/10 11:23:21;;;;;;;18.00;16.73;;;36.30;34.70;;;;;;5037640;28;20463;-69
2022/08/10 11:26:04;;;;;;;18.73;17.50;;;37.40;34.30;;;;;;5036190;28;20934;-69
2022/08/10 11:28:38;;;;;;;18.63;17.33;;;38.10;34.70;;;;;;5035644;28;20462;-69
2022/08/10 11:31:13;;;;;;;18.97;17.20;;;38.30;33.80;;;;;;5033420;28;20541;-70
2022/08/10 11:33:53;;;;;;;16.90;16.00;;;37.60;33.20;;;;;;5034799;28;20466;-69
2022/08/10 11:36:29;;;;;;;19.07;18.03;;;37.30;33.60;;;;;;5035319;28;20471;-69
2022/08/10 11:39:03;;;;;;;18.07;16.97;;;36.90;33.50;;;;;;5035685;28;20590;-70
2022/08/10 11:41:41;;;;;;;17.30;16.40;;;37.20;34.30;;;;;;5026764;28;20467;-69
2022/08/10 11:44:12;;;;;;;19.20;18.10;;;37.00;33.90;;;;;;5051908;28;20460;-69
2022/08/10 11:46:46;;;;;;;17.57;16.57;;;36.70;34.40;;;;;;5059554;28;20463;-70
2022/08/10 11:49:29;;;;;;;17.13;16.23;;;37.60;33.70;;;;;;5062438;28;20851;-69
2022/08/10 11:52:01;;;;;;;18.27;16.97;;;38.20;33.30;;;;;;5059821;28;20462;-68
2022/08/10 11:54:31;;;;;;;17.33;16.17;;;37.80;33.80;;;;;;5038673;28;20487;-69
2022/08/10 11:57:00;;;;;;;18.30;17.30;;;38.10;33.60;;;;;;5036142;28;20463;-70
2022/08/10 12:02:21;;;;;;;18.70;17.63;;;37.60;33.20;;;;;;5035561;28;20518;-70
2022/08/10 12:04:52;;;;;;;19.03;17.33;;;38.20;32.60;;;;;;5035630;28;20490;-69
2022/08/10 12:07:21;;;;;;;19.10;17.47;;;38.70;31.60;;;;;;5047518;28;20464;-69
2022/08/10 12:09:50;;;;;;;18.07;17.13;;;38.50;31.90;;;;;;5029723;28;20561;-70
2022/08/10 12:12:18;;;;;;;18.60;17.33;;;38.80;31.70;;;;;;5032679;28;20459;-69
2022/08/10 12:14:52;;;;;;;17.57;16.67;;;39.00;31.40;;;;;;5032947;28;20480;-69
2022/08/10 12:17:25;;;;;;;17.77;16.50;;;38.00;31.30;;;;;;5032312;28;20549;-69
2022/08/10 12:20:02;;;;;;;17.90;16.63;;;38.60;32.10;;;;;;5034545;28;20860;-70
2022/08/10 12:22:33;;;;;;;17.77;16.90;;;39.50;30.60;;;;;;5033880;28;20467;-69
2022/08/10 12:25:03;;;;;;;17.30;16.30;;;39.50;30.00;;;;;;5036863;28;20476;-69
2022/08/10 12:27:37;;;;;;;18.27;17.17;;;40.00;30.10;;;;;;5030278;28;20456;-70
2022/08/10 12:30:07;;;;;;;17.20;16.30;;;40.20;30.30;;;;;;5038623;28;20468;-69
2022/08/10 12:32:41;;;;;;;16.87;16.07;;;41.10;29.30;;;;;;5038709;28;20463;-70
2022/08/10 12:35:32;;;;;;;18.17;17.07;;;41.30;29.20;;;;;;5037664;28;20493;-69
2022/08/10 12:38:08;;;;;;;18.13;17.03;;;41.00;28.40;;;;;;5036869;28;21199;-69
2022/08/10 12:40:43;;;;;;;17.03;16.00;;;39.20;29.40;;;;;;5037105;28;20490;-69
2022/08/10 12:43:12;;;;;;;17.57;16.07;;;39.60;29.30;;;;;;5035560;28;20462;-69
2022/08/10 12:45:49;;;;;;;18.23;17.10;;;39.60;29.40;;;;;;5037339;28;20504;-69
2022/08/10 12:48:21;;;;;;;18.27;16.43;;;39.60;29.00;;;;;;5038175;28;20483;-69
2022/08/10 12:50:57;;;;;;;17.73;16.40;;;39.90;29.60;;;;;;5037445;28;20465;-68
2022/08/10 12:53:34;;;;;;;17.70;16.70;;;40.20;28.90;;;;;;5037806;28;20454;-69